Time;durP1;ratioP1;P1;durP2;ratioP2;P2;SDS_P1;SDS_P2;PMS_P1;PMS_P2;Temp;Humidity;BMP_temperature;BMP_pressure;BME280_temperature;BME280_humidity;BME280_pressure;Samples;Min_cycle;Max_cycle;Signal;HPM_P1;HPM_P2
2022/11/22 00:02:08;;;;;;;6.82;2.75;;;5.90;99.90;;;;;;5030618;28;20034;-66
2022/11/22 00:04:34;;;;;;;7.40;2.78;;;5.90;99.90;;;;;;5027480;28;20034;-69
2022/11/22 00:07:00;;;;;;;5.60;2.47;;;5.80;99.90;;;;;;5025723;28;20048;-65
2022/11/22 00:09:25;;;;;;;5.57;2.17;;;5.80;99.90;;;;;;5027760;28;20756;-66
2022/11/22 00:11:51;;;;;;;9.60;2.65;;;5.80;99.90;;;;;;5028083;28;20045;-67
2022/11/22 00:14:16;;;;;;;5.78;2.55;;;5.70;99.90;;;;;;5025918;28;20034;-65
2022/11/22 00:16:42;;;;;;;9.60;2.40;;;5.70;99.90;;;;;;5017561;28;20041;-65
2022/11/22 00:19:08;;;;;;;10.65;2.35;;;5.70;99.90;;;;;;5030475;28;20037;-64
2022/11/22 00:21:34;;;;;;;5.00;2.20;;;5.70;99.90;;;;;;5035847;28;20040;-69
2022/11/22 00:23:59;;;;;;;6.45;2.42;;;5.70;99.90;;;;;;5025677;28;20030;-65
2022/11/22 00:26:25;;;;;;;6.28;2.63;;;5.70;99.90;;;;;;5031231;28;20033;-65
2022/11/22 00:28:51;;;;;;;10.05;2.65;;;5.70;99.90;;;;;;5027219;28;20044;-64
2022/11/22 00:31:16;;;;;;;6.25;2.65;;;5.70;99.90;;;;;;5027843;28;20132;-66
2022/11/22 00:33:42;;;;;;;7.68;2.80;;;5.70;99.90;;;;;;5036502;28;20061;-65
2022/11/22 00:36:07;;;;;;;6.90;2.42;;;5.60;99.90;;;;;;5037195;28;20049;-65
2022/11/22 00:38:33;;;;;;;6.95;2.65;;;5.60;99.90;;;;;;5027943;28;20064;-68
2022/11/22 00:40:59;;;;;;;6.15;2.58;;;5.50;99.90;;;;;;5027908;28;20030;-65
2022/11/22 00:43:24;;;;;;;7.00;2.50;;;5.50;99.90;;;;;;5029764;28;20033;-65
2022/11/22 00:45:50;;;;;;;6.95;1.95;;;5.50;99.90;;;;;;5032925;28;20080;-65
2022/11/22 00:48:16;;;;;;;4.95;1.92;;;5.60;99.90;;;;;;5029157;28;20033;-66
2022/11/22 00:50:41;;;;;;;5.97;2.63;;;5.60;99.90;;;;;;5032329;28;20028;-64
2022/11/22 00:53:07;;;;;;;7.22;2.53;;;5.60;99.90;;;;;;5032957;28;20033;-65
2022/11/22 00:55:33;;;;;;;6.00;2.40;;;5.60;99.90;;;;;;5031348;28;20030;-65
2022/11/22 00:57:58;;;;;;;6.07;2.33;;;5.60;99.90;;;;;;5028869;28;20037;-65
2022/11/22 01:00:24;;;;;;;4.68;2.55;;;5.60;99.90;;;;;;5029154;28;20033;-65
2022/11/22 01:02:49;;;;;;;7.25;2.38;;;5.60;99.90;;;;;;5030929;28;20518;-64
2022/11/22 01:05:16;;;;;;;7.18;2.60;;;5.50;99.90;;;;;;5037469;28;20044;-65
2022/11/22 01:07:43;;;;;;;4.38;2.40;;;5.60;99.90;;;;;;5027880;28;20041;-65
2022/11/22 01:10:09;;;;;;;7.95;2.63;;;5.60;99.90;;;;;;5038862;28;20093;-66
2022/11/22 01:12:35;;;;;;;5.70;3.10;;;5.60;99.90;;;;;;5034364;28;20398;-70
2022/11/22 01:15:01;;;;;;;4.50;2.13;;;5.60;99.90;;;;;;5034765;28;20045;-67
2022/11/22 01:17:27;;;;;;;6.68;2.50;;;5.50;99.90;;;;;;5032333;28;20045;-68
2022/11/22 01:19:52;;;;;;;6.93;2.40;;;5.40;99.90;;;;;;5017688;28;20797;-65
2022/11/22 01:22:18;;;;;;;6.45;2.60;;;5.40;99.90;;;;;;5025776;28;20029;-66
2022/11/22 01:24:44;;;;;;;11.00;2.65;;;5.40;99.90;;;;;;5028124;28;20121;-65
2022/11/22 01:27:10;;;;;;;9.10;2.72;;;5.50;99.90;;;;;;5029859;28;20114;-65
2022/11/22 01:29:35;;;;;;;8.52;2.90;;;5.40;99.90;;;;;;5032419;28;20030;-68
2022/11/22 01:32:01;;;;;;;6.60;2.88;;;5.50;99.90;;;;;;5028687;28;21519;-66
2022/11/22 01:34:27;;;;;;;6.85;2.88;;;5.50;99.90;;;;;;5029653;28;20037;-65
2022/11/22 01:36:52;;;;;;;11.52;2.80;;;5.50;99.90;;;;;;5029855;28;20032;-66
2022/11/22 01:39:18;;;;;;;9.98;3.35;;;5.50;99.90;;;;;;5034100;28;20032;-67
2022/11/22 01:41:44;;;;;;;6.85;3.25;;;5.50;99.90;;;;;;5036997;28;20028;-65
2022/11/22 01:44:21;;;;;;;7.80;2.85;;;5.50;99.90;;;;;;5028909;28;20430;-66
2022/11/22 01:46:51;;;;;;;5.30;2.20;;;5.60;99.90;;;;;;5035006;28;20561;-66
2022/11/22 01:49:22;;;;;;;6.55;2.47;;;5.50;99.90;;;;;;5032639;28;20078;-64
2022/11/22 01:51:52;;;;;;;4.43;2.13;;;5.50;99.90;;;;;;5028740;28;20025;-66
2022/11/22 01:54:23;;;;;;;4.20;1.88;;;5.50;99.90;;;;;;5028481;28;20159;-65
2022/11/22 01:56:53;;;;;;;5.32;2.53;;;5.50;99.90;;;;;;5034361;28;20036;-66
2022/11/22 01:59:23;;;;;;;4.88;2.10;;;5.50;99.90;;;;;;5028714;28;20029;-65
2022/11/22 02:01:49;;;;;;;7.78;2.55;;;5.50;99.90;;;;;;5029747;28;20112;-65
2022/11/22 02:04:17;;;;;;;4.57;2.53;;;5.50;99.90;;;;;;5031646;28;20057;-69
2022/11/22 02:06:42;;;;;;;6.80;2.40;;;5.50;99.90;;;;;;5021680;28;20175;-66
2022/11/22 02:09:12;;;;;;;6.53;2.60;;;5.50;99.90;;;;;;5028551;28;20120;-66
2022/11/22 02:11:42;;;;;;;5.97;2.45;;;5.50;99.90;;;;;;5033284;28;20052;-66
2022/11/22 02:14:09;;;;;;;5.97;2.10;;;5.50;99.90;;;;;;5029667;28;20042;-65
2022/11/22 02:16:37;;;;;;;4.50;2.13;;;5.50;99.90;;;;;;5033636;28;20048;-64
2022/11/22 02:19:04;;;;;;;6.03;2.30;;;5.40;99.90;;;;;;5030267;28;20029;-65
2022/11/22 02:21:30;;;;;;;5.25;2.33;;;5.40;99.90;;;;;;5034449;28;20030;-68
2022/11/22 02:23:57;;;;;;;4.32;2.30;;;5.40;99.90;;;;;;5030739;28;20033;-65
2022/11/22 02:26:32;;;;;;;6.50;2.20;;;5.60;99.90;;;;;;5034360;28;20038;-65
2022/11/22 02:29:04;;;;;;;6.85;2.33;;;5.60;99.90;;;;;;5027004;28;20479;-65
2022/11/22 02:31:44;;;;;;;6.45;2.25;;;5.60;99.90;;;;;;5036536;28;20064;-66
2022/11/22 02:34:11;;;;;;;5.63;2.40;;;5.70;99.90;;;;;;5029869;28;20087;-65
2022/11/22 02:36:42;;;;;;;8.85;2.20;;;5.70;99.90;;;;;;5031572;28;20150;-66
2022/11/22 02:39:10;;;;;;;6.03;2.10;;;5.70;99.90;;;;;;5029865;28;20025;-65
2022/11/22 02:41:37;;;;;;;6.40;2.08;;;5.60;99.90;;;;;;5031072;28;20116;-65
2022/11/22 02:44:03;;;;;;;6.50;2.33;;;5.60;99.90;;;;;;5026638;28;20305;-65
2022/11/22 02:46:29;;;;;;;6.07;2.38;;;5.50;99.90;;;;;;5027455;28;20034;-65
2022/11/22 02:48:54;;;;;;;5.50;2.20;;;5.60;99.90;;;;;;5032743;28;20101;-65
2022/11/22 02:51:20;;;;;;;6.10;2.45;;;5.60;99.90;;;;;;5026669;28;20029;-65
2022/11/22 02:53:48;;;;;;;12.27;2.90;;;5.70;99.90;;;;;;5028934;28;20029;-66
2022/11/22 02:56:15;;;;;;;6.38;2.13;;;5.70;99.90;;;;;;5023710;28;20071;-67
2022/11/22 02:58:41;;;;;;;5.85;2.20;;;5.70;99.90;;;;;;5029278;28;20030;-67
2022/11/22 03:01:07;;;;;;;8.65;2.38;;;5.70;99.90;;;;;;5029732;28;20040;-65
2022/11/22 03:03:32;;;;;;;5.93;2.40;;;5.70;99.90;;;;;;5027634;28;20393;-65
2022/11/22 03:05:58;;;;;;;6.18;2.33;;;5.70;99.90;;;;;;5027207;28;20095;-68
2022/11/22 03:08:24;;;;;;;7.70;2.53;;;5.70;99.90;;;;;;5024806;28;20034;-64
2022/11/22 03:10:49;;;;;;;6.35;2.20;;;5.80;99.90;;;;;;5026753;28;20560;-66
2022/11/22 03:13:15;;;;;;;8.80;2.63;;;5.80;99.90;;;;;;5026166;28;20061;-65
2022/11/22 03:15:40;;;;;;;10.93;2.50;;;5.80;99.90;;;;;;5028190;28;20036;-63
2022/11/22 03:18:06;;;;;;;3.83;2.25;;;5.80;99.90;;;;;;5027151;28;20065;-64
2022/11/22 03:20:32;;;;;;;7.18;2.65;;;5.80;99.90;;;;;;5027812;28;20061;-66
2022/11/22 03:23:01;;;;;;;4.15;2.47;;;5.70;99.90;;;;;;5019863;28;20034;-66
2022/11/22 03:25:26;;;;;;;5.90;2.58;;;5.70;99.90;;;;;;5032965;28;20039;-65
2022/11/22 03:27:52;;;;;;;5.28;3.05;;;5.70;99.90;;;;;;5034392;28;20037;-67
2022/11/22 03:30:18;;;;;;;6.95;2.67;;;5.60;99.90;;;;;;5027708;28;20033;-66
2022/11/22 03:32:44;;;;;;;11.85;3.13;;;5.50;99.90;;;;;;5030784;28;20017;-68
2022/11/22 03:35:10;;;;;;;4.93;2.50;;;5.50;99.90;;;;;;5030847;28;20040;-67
2022/11/22 03:37:36;;;;;;;5.72;2.50;;;5.50;99.90;;;;;;5026204;28;20040;-65
2022/11/22 03:40:02;;;;;;;4.95;2.25;;;5.70;99.90;;;;;;5035566;28;20466;-66
2022/11/22 03:42:28;;;;;;;6.38;2.20;;;5.80;99.90;;;;;;5032792;28;20796;-65
2022/11/22 03:44:53;;;;;;;9.80;2.33;;;5.80;99.90;;;;;;5028393;28;20105;-64
2022/11/22 03:47:19;;;;;;;4.88;2.13;;;6.00;99.90;;;;;;5020408;28;20038;-64
2022/11/22 03:49:44;;;;;;;6.82;2.50;;;6.10;99.90;;;;;;5027529;28;20029;-69
2022/11/22 03:52:10;;;;;;;6.15;2.35;;;6.10;99.90;;;;;;5023037;28;20098;-65
2022/11/22 03:54:36;;;;;;;6.60;1.98;;;6.00;99.90;;;;;;5030127;28;20150;-66
2022/11/22 03:57:02;;;;;;;7.00;2.25;;;5.90;99.90;;;;;;5032214;28;20057;-63
2022/11/22 03:59:27;;;;;;;5.13;2.67;;;5.90;99.90;;;;;;5028723;28;20494;-65
2022/11/22 04:01:53;;;;;;;5.97;2.38;;;5.80;99.90;;;;;;5025657;28;20474;-63
2022/11/22 04:04:18;;;;;;;7.85;2.45;;;5.80;99.90;;;;;;5025875;28;20109;-69
2022/11/22 04:06:44;;;;;;;6.60;2.92;;;5.70;99.90;;;;;;5035192;28;20470;-66
2022/11/22 04:09:10;;;;;;;8.50;2.95;;;5.80;99.90;;;;;;5020608;28;20110;-65
2022/11/22 04:11:35;;;;;;;8.27;2.92;;;5.80;99.90;;;;;;5035628;28;20493;-65
2022/11/22 04:16:45;;;;;;;8.35;2.75;;;5.80;99.90;;;;;;5022603;28;20461;-67
2022/11/22 04:19:11;;;;;;;6.68;3.33;;;5.80;99.90;;;;;;5028536;28;20068;-65
2022/11/22 04:21:36;;;;;;;9.40;2.72;;;5.70;99.90;;;;;;5030120;28;20812;-68
2022/11/22 04:26:55;;;;;;;7.07;2.42;;;5.70;99.90;;;;;;5022310;28;20056;-66
2022/11/22 04:29:21;;;;;;;5.20;2.40;;;5.70;99.90;;;;;;5027469;28;20025;-64
2022/11/22 04:34:33;;;;;;;8.32;2.80;;;5.70;99.90;;;;;;5018945;28;20167;-64
2022/11/22 04:36:59;;;;;;;5.25;2.63;;;5.70;99.90;;;;;;5022827;28;20129;-67
2022/11/22 04:39:25;;;;;;;5.38;2.50;;;5.60;99.90;;;;;;5024226;28;20041;-66
2022/11/22 04:44:39;;;;;;;6.90;2.53;;;5.60;99.90;;;;;;5032296;28;20094;-69
2022/11/22 04:44:40;;;;;;;8.98;2.65;;;5.60;99.90;;;;;;5022411;28;20480;-65
2022/11/22 04:47:10;;;;;;;4.75;2.40;;;5.60;99.90;;;;;;5027810;28;20040;-65
2022/11/22 04:49:36;;;;;;;8.85;2.75;;;5.60;99.90;;;;;;5029475;28;20086;-66
2022/11/22 04:54:47;;;;;;;9.73;3.13;;;5.60;99.90;;;;;;5033505;28;20040;-65
2022/11/22 04:57:13;;;;;;;5.53;2.75;;;5.60;99.90;;;;;;5032515;28;20037;-70
2022/11/22 04:59:38;;;;;;;5.38;2.53;;;5.60;99.90;;;;;;5032642;28;20037;-69
2022/11/22 05:02:04;;;;;;;11.02;2.85;;;5.60;99.90;;;;;;5024542;28;20450;-68
2022/11/22 05:04:30;;;;;;;7.95;2.80;;;5.50;99.90;;;;;;5011044;28;20037;-68
2022/11/22 05:06:55;;;;;;;7.78;3.00;;;5.50;99.90;;;;;;5025729;28;20041;-69
2022/11/22 05:09:21;;;;;;;9.57;3.58;;;5.40;99.90;;;;;;5023898;28;20030;-65
2022/11/22 05:11:47;;;;;;;7.03;3.30;;;5.40;99.90;;;;;;5030345;28;21585;-67
2022/11/22 05:14:13;;;;;;;9.60;3.72;;;5.40;99.90;;;;;;5029126;28;20557;-68
2022/11/22 05:16:38;;;;;;;8.75;3.88;;;5.40;99.90;;;;;;5025013;28;20048;-71
2022/11/22 05:19:04;;;;;;;9.02;3.53;;;5.30;99.90;;;;;;5034367;28;20029;-68
2022/11/22 05:21:29;;;;;;;9.80;3.60;;;5.30;99.90;;;;;;5030672;28;20467;-71
2022/11/22 05:23:55;;;;;;;11.57;3.40;;;5.30;99.90;;;;;;5027534;28;20037;-70
2022/11/22 05:26:25;;;;;;;8.70;3.60;;;5.30;99.90;;;;;;5030202;28;20390;-68
2022/11/22 05:28:51;;;;;;;10.57;3.70;;;5.30;99.90;;;;;;5024435;28;20034;-77
2022/11/22 05:31:22;;;;;;;10.93;3.38;;;5.30;99.90;;;;;;5028072;28;20037;-70
2022/11/22 05:33:50;;;;;;;8.38;3.42;;;5.30;99.90;;;;;;5024633;28;20021;-69
2022/11/22 05:36:16;;;;;;;6.18;3.05;;;5.20;99.90;;;;;;5028164;28;20045;-72
2022/11/22 05:38:41;;;;;;;9.35;3.30;;;5.20;99.90;;;;;;5038929;28;20080;-69
2022/11/22 05:41:10;;;;;;;7.43;3.30;;;5.10;99.90;;;;;;5027198;28;20053;-68
2022/11/22 05:43:36;;;;;;;6.35;3.13;;;5.00;99.90;;;;;;5030427;28;20040;-73
2022/11/22 05:46:10;;;;;;;7.35;3.08;;;4.90;99.90;;;;;;5042521;28;20033;-67
2022/11/22 05:48:38;;;;;;;11.95;3.80;;;4.90;99.90;;;;;;5037372;28;20026;-67
2022/11/22 05:51:11;;;;;;;8.13;3.20;;;4.90;99.90;;;;;;5031597;28;20034;-69
2022/11/22 05:53:37;;;;;;;11.27;3.40;;;4.90;99.90;;;;;;5032642;28;20034;-70
2022/11/22 05:56:10;;;;;;;13.52;4.03;;;4.80;99.90;;;;;;5036058;28;20501;-66
2022/11/22 05:58:37;;;;;;;7.32;3.08;;;4.90;99.90;;;;;;5025823;28;20383;-67
2022/11/22 06:01:10;;;;;;;12.45;4.00;;;4.90;99.90;;;;;;5035102;28;20029;-69
2022/11/22 06:03:36;;;;;;;8.98;3.85;;;4.90;99.90;;;;;;5028617;28;20033;-69
2022/11/22 06:06:03;;;;;;;9.98;3.20;;;4.90;99.90;;;;;;5031909;28;20032;-69
2022/11/22 06:08:31;;;;;;;9.70;3.63;;;4.80;99.90;;;;;;5028874;28;20029;-69
2022/11/22 06:11:07;;;;;;;9.43;3.67;;;4.80;99.90;;;;;;5028422;28;20033;-67
2022/11/22 06:13:36;;;;;;;9.90;4.00;;;4.80;99.90;;;;;;5025788;28;20033;-68
2022/11/22 06:16:04;;;;;;;13.47;4.33;;;4.80;99.90;;;;;;5033156;28;20033;-68
2022/11/22 06:18:29;;;;;;;9.73;4.00;;;4.80;99.90;;;;;;5029232;28;20290;-69
2022/11/22 06:20:57;;;;;;;9.20;3.88;;;4.80;99.90;;;;;;5028949;28;20033;-72
2022/11/22 06:23:23;;;;;;;8.00;3.47;;;4.80;99.90;;;;;;5027847;28;20037;-68
2022/11/22 06:25:59;;;;;;;10.13;3.83;;;4.80;99.90;;;;;;5026826;28;20034;-70
2022/11/22 06:28:27;;;;;;;10.20;4.00;;;4.80;99.90;;;;;;5029126;28;20120;-68
2022/11/22 06:30:52;;;;;;;10.50;3.65;;;4.80;99.90;;;;;;5029209;28;20030;-73
2022/11/22 06:33:18;;;;;;;10.95;3.90;;;4.80;99.90;;;;;;5034671;28;20351;-70
2022/11/22 06:35:44;;;;;;;14.77;4.95;;;4.80;99.90;;;;;;5033566;28;20605;-68
2022/11/22 06:38:10;;;;;;;14.95;5.28;;;4.90;99.90;;;;;;5033145;28;20045;-70
2022/11/22 06:40:35;;;;;;;12.23;5.60;;;4.90;99.90;;;;;;5028494;28;20482;-68
2022/11/22 06:43:06;;;;;;;16.73;6.80;;;4.90;99.90;;;;;;5028234;28;20037;-70
2022/11/22 06:45:31;;;;;;;19.15;6.45;;;4.90;99.90;;;;;;5026841;28;20037;-68
2022/11/22 06:47:57;;;;;;;11.82;5.40;;;4.80;99.90;;;;;;5030577;28;20095;-74
2022/11/22 06:50:23;;;;;;;14.05;5.22;;;4.80;99.90;;;;;;5027871;28;20526;-67
2022/11/22 06:52:52;;;;;;;14.70;5.47;;;4.80;99.90;;;;;;5028706;28;20033;-68
2022/11/22 06:55:17;;;;;;;13.63;5.45;;;4.90;99.90;;;;;;5022054;28;20040;-68
2022/11/22 06:57:48;;;;;;;9.80;4.50;;;4.80;99.90;;;;;;5014729;28;20080;-67
2022/11/22 07:00:14;;;;;;;12.88;4.55;;;4.80;99.90;;;;;;5021470;28;20056;-66
2022/11/22 07:02:39;;;;;;;9.25;4.07;;;4.80;99.90;;;;;;5032390;28;20550;-68
2022/11/22 07:05:05;;;;;;;11.18;4.32;;;4.90;99.90;;;;;;5027508;28;20028;-68
2022/11/22 07:07:31;;;;;;;9.95;4.20;;;4.90;99.90;;;;;;5029651;28;20177;-67
2022/11/22 07:09:56;;;;;;;9.60;3.92;;;4.80;99.90;;;;;;5026634;28;20041;-71
2022/11/22 07:12:22;;;;;;;11.60;4.13;;;4.80;99.90;;;;;;5028066;28;20142;-67
2022/11/22 07:14:47;;;;;;;11.30;3.58;;;4.70;99.90;;;;;;5033859;28;20034;-66
2022/11/22 07:17:13;;;;;;;13.70;4.82;;;4.80;99.90;;;;;;5031868;28;20122;-67
2022/11/22 07:19:39;;;;;;;13.18;4.65;;;4.70;99.90;;;;;;5029453;28;20051;-67
2022/11/22 07:22:04;;;;;;;9.77;4.15;;;4.60;99.90;;;;;;5026518;28;20470;-65
2022/11/22 07:24:30;;;;;;;11.50;4.75;;;4.60;99.90;;;;;;5030866;28;20033;-66
2022/11/22 07:26:55;;;;;;;13.02;4.38;;;4.60;99.90;;;;;;5027943;28;20037;-71
2022/11/22 07:29:21;;;;;;;14.43;4.70;;;4.70;99.90;;;;;;5032965;28;20043;-72
2022/11/22 07:31:47;;;;;;;12.52;4.60;;;4.80;99.90;;;;;;5031842;28;20029;-67
2022/11/22 07:34:12;;;;;;;16.73;4.43;;;4.80;99.90;;;;;;5029222;28;20040;-68
2022/11/22 07:36:38;;;;;;;11.63;4.50;;;4.90;99.90;;;;;;5034186;28;20115;-67
2022/11/22 07:39:04;;;;;;;10.85;4.32;;;4.90;99.90;;;;;;5034217;28;20025;-67
2022/11/22 07:41:29;;;;;;;10.20;4.30;;;4.90;99.90;;;;;;5032405;28;20037;-67
2022/11/22 07:43:55;;;;;;;11.88;4.05;;;5.00;99.90;;;;;;5031859;28;20033;-71
2022/11/22 07:46:23;;;;;;;11.60;4.10;;;5.00;99.90;;;;;;5025093;28;20064;-66
2022/11/22 07:48:49;;;;;;;13.02;3.85;;;5.00;99.90;;;;;;5027858;28;20033;-68
2022/11/22 07:51:14;;;;;;;12.55;4.13;;;5.00;99.90;;;;;;5024808;28;20086;-67
2022/11/22 07:53:40;;;;;;;13.77;3.90;;;5.10;99.90;;;;;;5027290;28;20033;-67
2022/11/22 07:56:06;;;;;;;10.13;4.10;;;5.10;99.90;;;;;;5025008;28;20030;-67
2022/11/22 07:58:33;;;;;;;12.55;5.07;;;5.20;99.90;;;;;;5019889;28;20924;-67
2022/11/22 08:01:10;;;;;;;16.40;5.63;;;5.20;99.90;;;;;;5018694;28;20100;-72
2022/11/22 08:03:36;;;;;;;16.23;5.10;;;5.20;99.90;;;;;;5022880;28;20052;-68
2022/11/22 08:06:04;;;;;;;14.18;5.55;;;5.20;99.90;;;;;;5025696;28;20029;-72
2022/11/22 08:08:30;;;;;;;10.95;4.20;;;5.30;99.90;;;;;;5026322;28;20029;-70
2022/11/22 08:10:55;;;;;;;9.82;3.97;;;5.30;99.90;;;;;;5024441;28;20053;-69
2022/11/22 08:13:21;;;;;;;11.77;4.50;;;5.30;99.90;;;;;;5025580;28;20140;-68
2022/11/22 08:15:48;;;;;;;11.93;4.25;;;5.30;99.90;;;;;;5026594;28;20105;-67
2022/11/22 08:18:14;;;;;;;10.13;4.57;;;5.40;99.90;;;;;;5028858;28;20130;-66
2022/11/22 08:20:40;;;;;;;9.93;4.32;;;5.40;99.90;;;;;;5024737;28;20526;-67
2022/11/22 08:23:06;;;;;;;18.75;4.25;;;5.40;99.90;;;;;;5028212;28;20136;-70
2022/11/22 08:25:31;;;;;;;11.77;4.28;;;5.40;99.90;;;;;;5025729;28;20029;-67
2022/11/22 08:27:57;;;;;;;12.80;4.40;;;5.40;99.90;;;;;;5028860;28;20553;-67
2022/11/22 08:30:23;;;;;;;13.80;4.28;;;5.50;99.90;;;;;;5031327;28;20079;-66
2022/11/22 08:32:50;;;;;;;9.63;4.07;;;5.50;99.90;;;;;;5025147;28;20033;-67
2022/11/22 08:35:16;;;;;;;10.80;4.15;;;5.50;99.90;;;;;;5029673;28;20037;-64
2022/11/22 08:37:42;;;;;;;14.07;4.25;;;5.50;99.90;;;;;;5027897;28;20129;-67
2022/11/22 08:40:08;;;;;;;10.55;3.92;;;5.50;99.90;;;;;;5028826;28;20096;-66
2022/11/22 08:42:34;;;;;;;14.52;4.38;;;5.60;99.90;;;;;;5028098;28;20037;-67
2022/11/22 08:44:59;;;;;;;12.00;4.10;;;5.70;99.90;;;;;;5029623;28;20048;-74
2022/11/22 08:47:25;;;;;;;13.73;4.63;;;5.70;99.90;;;;;;5029225;28;20025;-68
2022/11/22 08:49:51;;;;;;;9.88;4.45;;;5.70;99.90;;;;;;5030314;28;20029;-70
2022/11/22 08:52:16;;;;;;;12.68;5.45;;;5.70;99.90;;;;;;5031777;28;20049;-67
2022/11/22 08:54:42;;;;;;;14.35;5.18;;;5.70;99.90;;;;;;5030494;28;20038;-65
2022/11/22 08:57:07;;;;;;;16.05;4.93;;;5.70;99.90;;;;;;5026324;28;20041;-66
2022/11/22 08:59:33;;;;;;;12.13;5.13;;;5.80;99.90;;;;;;5028453;28;20036;-66
2022/11/22 09:01:59;;;;;;;12.60;5.43;;;5.80;99.90;;;;;;5029008;28;20035;-66
2022/11/22 09:04:25;;;;;;;13.20;5.60;;;5.90;99.90;;;;;;5029135;28;20041;-66
2022/11/22 09:06:50;;;;;;;13.55;5.50;;;5.80;99.90;;;;;;5029858;28;20520;-70
2022/11/22 09:09:16;;;;;;;14.18;5.60;;;5.80;99.90;;;;;;5029323;28;20045;-67
2022/11/22 09:11:42;;;;;;;14.02;6.22;;;5.80;99.90;;;;;;5029335;28;20046;-69
2022/11/22 09:14:07;;;;;;;12.77;5.68;;;5.90;99.90;;;;;;5029994;28;20132;-68
2022/11/22 09:16:33;;;;;;;14.38;6.03;;;5.90;99.90;;;;;;5030877;28;20092;-66
2022/11/22 09:18:59;;;;;;;12.40;6.07;;;6.00;99.90;;;;;;5033807;28;20029;-69
2022/11/22 09:21:25;;;;;;;12.52;5.55;;;6.00;99.90;;;;;;5023987;28;20128;-69
2022/11/22 09:23:53;;;;;;;15.50;5.43;;;6.10;99.90;;;;;;5026323;28;20029;-70
2022/11/22 09:26:20;;;;;;;15.35;5.40;;;6.10;99.90;;;;;;5030500;28;20021;-68
2022/11/22 09:28:47;;;;;;;15.32;5.50;;;6.20;99.90;;;;;;5027553;28;20038;-69
2022/11/22 09:31:18;;;;;;;17.17;6.72;;;6.20;99.90;;;;;;5029821;28;20038;-65
2022/11/22 09:33:44;;;;;;;16.70;6.53;;;6.20;99.90;;;;;;5028334;28;20057;-69
2022/11/22 09:36:13;;;;;;;11.18;5.50;;;6.30;99.90;;;;;;5025878;28;20410;-67
2022/11/22 09:38:39;;;;;;;16.23;6.25;;;6.20;99.90;;;;;;5029258;28;20025;-67
2022/11/22 09:41:26;;;;;;;13.25;4.75;;;6.20;99.90;;;;;;5029158;28;20087;-71
2022/11/22 09:44:03;;;;;;;10.70;3.92;;;6.20;99.90;;;;;;5029159;28;20047;-67
2022/11/22 09:46:41;;;;;;;11.15;4.28;;;6.20;99.90;;;;;;5027253;28;20044;-72
2022/11/22 09:49:27;;;;;;;14.40;4.07;;;6.30;99.90;;;;;;5029018;28;20033;-67
2022/11/22 09:52:07;;;;;;;7.53;2.95;;;6.30;99.90;;;;;;5026478;28;20037;-67
2022/11/22 09:54:41;;;;;;;9.93;2.92;;;6.30;99.90;;;;;;5025906;28;20115;-65
2022/11/22 09:57:34;;;;;;;8.32;2.50;;;6.30;99.90;;;;;;5027749;28;20139;-69
2022/11/22 10:00:17;;;;;;;9.93;2.53;;;6.30;99.90;;;;;;5017117;28;20099;-68
2022/11/22 10:03:00;;;;;;;7.72;2.50;;;6.30;99.90;;;;;;5025805;28;20033;-64
2022/11/22 10:05:37;;;;;;;11.30;2.45;;;6.40;99.90;;;;;;5026987;28;20022;-66
2022/11/22 10:08:29;;;;;;;18.10;2.83;;;6.40;99.90;;;;;;5025741;28;20030;-70
2022/11/22 10:10:57;;;;;;;6.25;2.20;;;6.50;99.90;;;;;;5026630;28;20059;-66
2022/11/22 10:13:34;;;;;;;10.05;2.55;;;6.50;99.90;;;;;;5028048;28;20145;-64
2022/11/22 10:16:11;;;;;;;10.55;2.75;;;6.50;99.90;;;;;;5025941;28;20029;-70
2022/11/22 10:18:47;;;;;;;13.18;2.45;;;6.50;99.90;;;;;;5027040;28;20041;-66
2022/11/22 10:21:13;;;;;;;11.90;2.40;;;6.60;99.90;;;;;;5029948;28;20033;-66
2022/11/22 10:23:43;;;;;;;11.23;2.58;;;6.60;99.90;;;;;;5027624;28;21591;-73
2022/11/22 10:26:25;;;;;;;7.93;2.70;;;6.60;99.90;;;;;;5019763;28;20098;-70
2022/11/22 10:29:08;;;;;;;13.52;3.00;;;6.70;99.90;;;;;;5020249;28;20029;-67
2022/11/22 10:31:51;;;;;;;12.23;2.92;;;6.60;99.90;;;;;;5030107;28;20493;-67
2022/11/22 10:34:48;;;;;;;10.85;2.38;;;6.80;99.90;;;;;;5027423;28;20128;-66
2022/11/22 10:37:28;;;;;;;9.45;2.75;;;6.80;99.90;;;;;;5023188;28;20386;-69
2022/11/22 10:40:43;;;;;;;9.68;2.65;;;6.90;99.90;;;;;;5022834;28;20053;-65
2022/11/22 10:43:27;;;;;;;7.72;2.65;;;7.00;99.90;;;;;;5019253;28;20599;-67
2022/11/22 10:46:05;;;;;;;13.10;2.90;;;7.00;99.90;;;;;;5026235;28;20037;-65
2022/11/22 10:48:57;;;;;;;12.68;3.28;;;7.00;99.90;;;;;;5028428;28;20055;-68
2022/11/22 10:51:50;;;;;;;10.32;2.67;;;7.10;99.90;;;;;;5025190;28;20121;-66
2022/11/22 10:54:42;;;;;;;14.25;2.80;;;7.10;99.90;;;;;;5026448;28;20033;-68
2022/11/22 10:57:21;;;;;;;9.05;2.20;;;7.10;99.90;;;;;;5018376;28;20053;-65
2022/11/22 11:00:01;;;;;;;10.35;2.30;;;7.00;99.90;;;;;;5030636;28;20029;-72
2022/11/22 11:02:44;;;;;;;9.57;1.83;;;7.00;99.90;;;;;;5042774;28;20037;-68
2022/11/22 11:05:18;;;;;;;10.88;2.28;;;7.00;99.90;;;;;;5019578;28;20037;-69
2022/11/22 11:07:48;;;;;;;12.00;2.42;;;7.10;99.90;;;;;;5022619;28;20033;-68
2022/11/22 11:10:20;;;;;;;11.40;2.33;;;7.10;99.90;;;;;;5026658;28;20080;-66
2022/11/22 11:12:50;;;;;;;10.10;2.33;;;7.10;99.90;;;;;;5025830;28;20049;-68
2022/11/22 11:15:23;;;;;;;11.52;2.33;;;7.20;99.90;;;;;;5027003;28;20041;-67
2022/11/22 11:17:54;;;;;;;9.27;2.67;;;7.20;99.90;;;;;;5026444;28;20045;-67
2022/11/22 11:20:36;;;;;;;7.38;2.50;;;7.20;99.90;;;;;;5018192;28;20040;-67
2022/11/22 11:23:01;;;;;;;9.75;2.38;;;7.10;99.90;;;;;;5028587;28;20032;-72
2022/11/22 11:25:39;;;;;;;25.85;2.63;;;7.20;99.90;;;;;;5029063;28;20029;-67
2022/11/22 11:28:26;;;;;;;12.70;2.42;;;7.20;99.90;;;;;;5024310;28;20040;-74
2022/11/22 11:31:07;;;;;;;15.15;2.03;;;7.20;99.90;;;;;;5024197;28;20036;-68
2022/11/22 11:33:39;;;;;;;11.15;2.00;;;7.20;99.90;;;;;;5022363;28;20037;-65
2022/11/22 11:36:22;;;;;;;7.85;2.22;;;7.20;99.90;;;;;;5025141;28;20029;-66
2022/11/22 11:38:56;;;;;;;9.90;2.25;;;7.30;99.90;;;;;;5023902;28;20052;-74
2022/11/22 11:41:32;;;;;;;9.82;2.25;;;7.30;99.90;;;;;;5023361;28;20025;-64
2022/11/22 11:44:03;;;;;;;12.27;2.45;;;7.20;99.90;;;;;;5027737;28;20623;-68
2022/11/22 11:46:49;;;;;;;14.68;2.78;;;7.20;99.90;;;;;;5018729;28;20029;-67
2022/11/22 11:49:17;;;;;;;9.02;2.40;;;7.20;99.90;;;;;;5030164;28;20119;-66
2022/11/22 11:51:46;;;;;;;7.97;1.85;;;7.20;99.90;;;;;;5025220;28;20048;-69
2022/11/22 11:54:43;;;;;;;7.32;2.00;;;7.20;99.90;;;;;;5025860;28;20051;-67
2022/11/22 11:57:35;;;;;;;7.43;2.10;;;7.20;99.90;;;;;;5022834;28;20573;-68
2022/11/22 12:00:06;;;;;;;4.47;1.67;;;7.30;99.90;;;;;;5026818;28;20074;-71
2022/11/22 12:02:38;;;;;;;8.77;1.63;;;7.30;99.90;;;;;;5033114;28;20479;-68
2022/11/22 12:05:26;;;;;;;15.60;2.75;;;7.30;99.90;;;;;;5023447;28;20490;-72
2022/11/22 12:07:51;;;;;;;7.47;1.83;;;7.30;99.90;;;;;;5027248;28;20050;-67
2022/11/22 12:10:54;;;;;;;9.55;1.67;;;7.30;99.90;;;;;;5021430;28;20032;-72
2022/11/22 12:13:23;;;;;;;12.00;2.00;;;7.30;99.90;;;;;;5023006;28;20236;-67
2022/11/22 12:16:08;;;;;;;7.55;1.75;;;7.20;99.90;;;;;;5024328;28;20087;-67
2022/11/22 12:18:40;;;;;;;11.05;1.98;;;7.20;99.90;;;;;;5040306;28;20056;-67
2022/11/22 12:21:24;;;;;;;9.65;1.55;;;7.20;99.90;;;;;;5028080;28;20119;-68
2022/11/22 12:23:52;;;;;;;11.48;1.90;;;7.20;99.90;;;;;;5027942;28;20040;-68
2022/11/22 12:26:19;;;;;;;12.57;2.17;;;7.10;99.90;;;;;;5033275;28;20039;-67
2022/11/22 12:28:45;;;;;;;9.55;2.10;;;7.20;99.90;;;;;;5033069;28;20107;-67
2022/11/22 12:31:29;;;;;;;7.65;1.75;;;7.20;99.90;;;;;;5030870;28;20107;-68
2022/11/22 12:34:05;;;;;;;10.05;2.03;;;7.20;99.90;;;;;;5038620;28;20026;-70
2022/11/22 12:36:42;;;;;;;13.05;2.28;;;7.20;99.90;;;;;;5033835;28;20569;-67
2022/11/22 12:39:12;;;;;;;14.10;2.13;;;7.20;99.90;;;;;;5030374;28;20071;-66
2022/11/22 12:41:39;;;;;;;11.23;2.20;;;7.20;99.90;;;;;;5029383;28;20497;-67
2022/11/22 12:44:09;;;;;;;9.65;2.33;;;7.20;99.90;;;;;;5029733;28;20030;-73
2022/11/22 12:46:40;;;;;;;8.20;2.17;;;7.20;99.90;;;;;;5030348;28;20052;-66
2022/11/22 12:49:16;;;;;;;9.35;2.10;;;7.20;99.90;;;;;;5025507;28;20028;-71
2022/11/22 12:51:49;;;;;;;13.23;2.45;;;7.10;99.90;;;;;;5039865;28;20036;-67
2022/11/22 12:54:28;;;;;;;7.78;1.70;;;7.10;99.90;;;;;;5029933;28;20567;-66
2022/11/22 12:57:04;;;;;;;10.75;1.98;;;7.10;99.90;;;;;;5032250;28;20052;-65
2022/11/22 12:59:48;;;;;;;6.15;2.10;;;7.10;99.90;;;;;;5031275;28;20025;-67
2022/11/22 13:02:35;;;;;;;11.55;2.00;;;7.10;99.90;;;;;;5034394;28;20112;-66
2022/11/22 13:05:14;;;;;;;6.50;2.10;;;7.10;99.90;;;;;;5023800;28;20124;-68
2022/11/22 13:07:48;;;;;;;8.02;2.38;;;7.10;99.90;;;;;;5028604;28;20029;-69
2022/11/22 13:10:35;;;;;;;11.77;2.20;;;7.10;99.90;;;;;;5029534;28;20040;-67
2022/11/22 13:13:03;;;;;;;7.20;2.60;;;7.20;99.90;;;;;;5022571;28;20486;-69
2022/11/22 13:15:33;;;;;;;9.52;2.20;;;7.10;99.90;;;;;;5026616;28;20037;-67
2022/11/22 13:17:59;;;;;;;14.70;1.85;;;7.10;99.90;;;;;;5033807;28;20025;-65